Time;durP1;ratioP1;P1;durP2;ratioP2;P2;SDS_P1;SDS_P2;PMS_P1;PMS_P2;Temp;Humidity;BMP_temperature;BMP_pressure;BME280_temperature;BME280_humidity;BME280_pressure;Samples;Min_cycle;Max_cycle;Signal;HPM_P1;HPM_P2
2020/12/27 05:00:50;;;;;;;6.23;5.63;;;-1.90;99.90;;;;;;5755356;23;20504;-63
2020/12/27 05:03:17;;;;;;;5.93;5.30;;;-1.90;99.90;;;;;;4974733;28;20435;-63
2020/12/27 05:05:43;;;;;;;11.67;6.03;;;-1.80;99.90;;;;;;4974949;28;20445;-63
2020/12/27 05:08:09;;;;;;;7.37;5.63;;;-1.80;99.90;;;;;;4974578;28;20482;-63
2020/12/27 05:10:39;;;;;;;7.43;5.90;;;-1.80;99.90;;;;;;4974434;28;20829;-63
2020/12/27 05:13:07;;;;;;;9.00;6.23;;;-1.80;99.90;;;;;;4974980;28;20576;-63
2020/12/27 05:15:34;;;;;;;6.63;5.87;;;-1.80;99.90;;;;;;4974665;28;20870;-63
2020/12/27 05:18:01;;;;;;;6.13;5.20;;;-1.80;99.90;;;;;;4975739;28;20624;-63
2020/12/27 05:20:28;;;;;;;5.57;4.97;;;-1.80;99.90;;;;;;4977755;28;20980;-65
2020/12/27 05:22:59;;;;;;;6.83;5.93;;;-1.80;99.90;;;;;;4977758;28;20458;-64
2020/12/27 05:25:26;;;;;;;5.07;4.57;;;-1.80;99.90;;;;;;4978767;28;20821;-62
2020/12/27 05:27:54;;;;;;;7.60;5.50;;;-1.70;99.90;;;;;;4978233;28;20508;-63
2020/12/27 05:30:26;;;;;;;7.77;5.70;;;-1.70;99.90;;;;;;4977612;28;20462;-63
2020/12/27 05:32:52;;;;;;;6.77;6.07;;;-1.70;99.90;;;;;;4977837;28;20521;-64
2020/12/27 05:35:19;;;;;;;6.77;6.07;;;-1.70;99.90;;;;;;4977768;28;20458;-64
2020/12/27 05:37:47;;;;;;;7.20;5.73;;;-1.70;99.90;;;;;;4977681;28;20578;-64
2020/12/27 05:40:13;;;;;;;5.90;5.30;;;-1.70;99.90;;;;;;4977717;28;20454;-63
2020/12/27 05:42:40;;;;;;;5.87;5.33;;;-1.70;99.90;;;;;;4978391;28;20486;-63
2020/12/27 05:45:13;;;;;;;7.60;6.33;;;-1.70;99.90;;;;;;4978765;28;20455;-64
2020/12/27 05:47:40;;;;;;;5.57;5.07;;;-1.70;99.90;;;;;;4979027;28;20446;-62
2020/12/27 05:50:08;;;;;;;7.23;6.40;;;-1.70;99.90;;;;;;4979804;28;20454;-62
2020/12/27 05:52:35;;;;;;;6.30;5.40;;;-1.70;99.90;;;;;;4980803;28;20483;-62
2020/12/27 05:55:04;;;;;;;7.13;5.63;;;-1.70;99.90;;;;;;4980811;28;20478;-64
2020/12/27 05:57:34;;;;;;;7.60;5.10;;;-1.70;99.90;;;;;;4979191;28;20542;-64
2020/12/27 06:00:03;;;;;;;6.30;5.67;;;-1.70;99.90;;;;;;4978831;28;20447;-64
2020/12/27 06:02:40;;;;;;;7.17;5.70;;;-1.70;99.90;;;;;;4977767;28;20517;-63
2020/12/27 06:05:11;;;;;;;7.47;6.60;;;-1.70;99.90;;;;;;4977511;28;20478;-62
2020/12/27 06:07:40;;;;;;;5.73;5.20;;;-1.70;99.90;;;;;;4977650;28;20458;-65
2020/12/27 06:10:08;;;;;;;6.40;5.90;;;-1.70;99.90;;;;;;4977362;28;20466;-65
2020/12/27 06:13:07;;;;;;;8.30;5.50;;;-1.70;99.90;;;;;;4976763;28;20483;-63
2020/12/27 06:15:36;;;;;;;9.23;5.37;;;-1.70;99.90;;;;;;4977034;28;20501;-65
2020/12/27 06:18:12;;;;;;;6.57;5.90;;;-1.60;99.90;;;;;;4976904;28;20451;-63
2020/12/27 06:20:39;;;;;;;6.07;5.30;;;-1.60;99.90;;;;;;4976861;28;20536;-64
2020/12/27 06:23:07;;;;;;;5.83;5.33;;;-1.60;99.90;;;;;;4977037;28;20557;-65
2020/12/27 06:25:35;;;;;;;6.10;5.40;;;-1.50;99.90;;;;;;4977116;28;20467;-65
2020/12/27 06:28:02;;;;;;;6.87;5.20;;;-1.60;99.90;;;;;;4976761;28;20941;-64
2020/12/27 06:30:34;;;;;;;6.33;5.57;;;-1.60;99.90;;;;;;4976413;28;20455;-63
2020/12/27 06:33:09;;;;;;;6.90;6.20;;;-1.50;99.90;;;;;;4976912;28;20503;-63
2020/12/27 06:35:37;;;;;;;6.60;5.27;;;-1.40;99.90;;;;;;4977131;28;20442;-63
2020/12/27 06:38:14;;;;;;;5.37;4.87;;;-1.40;99.90;;;;;;4978199;28;20949;-63
2020/12/27 06:40:41;;;;;;;5.50;5.00;;;-1.30;99.90;;;;;;4977132;28;20485;-63
2020/12/27 06:43:14;;;;;;;5.70;4.83;;;-1.20;99.90;;;;;;4976530;28;20480;-62
2020/12/27 06:45:40;;;;;;;5.47;4.97;;;-1.10;99.90;;;;;;4976462;28;20480;-63
2020/12/27 06:48:07;;;;;;;7.03;5.23;;;-1.10;99.90;;;;;;4976165;28;20465;-63
2020/12/27 06:50:44;;;;;;;5.33;4.83;;;-1.00;99.90;;;;;;4976060;28;20478;-63
2020/12/27 06:53:11;;;;;;;4.67;4.23;;;-1.00;99.90;;;;;;4976248;28;20471;-64
2020/12/27 06:55:39;;;;;;;6.60;5.43;;;-1.00;99.90;;;;;;4976200;28;20458;-63
2020/12/27 06:58:22;;;;;;;6.23;4.70;;;-1.00;99.90;;;;;;4976394;28;20469;-64
2020/12/27 07:00:48;;;;;;;6.30;5.00;;;-1.00;99.90;;;;;;4975426;28;20560;-65
2020/12/27 07:03:20;;;;;;;10.57;5.67;;;-0.90;99.90;;;;;;4976204;28;20470;-63
2020/12/27 07:05:47;;;;;;;7.60;4.37;;;-1.00;99.90;;;;;;4976798;28;20466;-65
2020/12/27 07:08:15;;;;;;;6.40;5.20;;;-1.10;99.90;;;;;;4976958;28;20458;-64
2020/12/27 07:10:44;;;;;;;12.00;5.77;;;-1.00;99.90;;;;;;4977925;28;20478;-64
2020/12/27 07:13:12;;;;;;;5.97;5.10;;;-1.00;99.90;;;;;;4976370;28;21027;-63
2020/12/27 07:15:49;;;;;;;6.30;5.67;;;-1.00;99.90;;;;;;4976859;28;20465;-64
2020/12/27 07:18:21;;;;;;;7.20;5.90;;;-1.10;99.90;;;;;;4977330;28;20465;-64
2020/12/27 07:20:51;;;;;;;6.90;5.60;;;-1.20;99.90;;;;;;4975961;28;21019;-63
2020/12/27 07:23:21;;;;;;;6.87;5.57;;;-1.20;99.90;;;;;;4976337;28;20497;-63
2020/12/27 07:25:53;;;;;;;5.90;5.40;;;-1.20;99.90;;;;;;4975327;28;20466;-63
2020/12/27 07:28:20;;;;;;;6.40;5.63;;;-1.30;99.90;;;;;;4976421;28;20505;-64
2020/12/27 07:30:48;;;;;;;7.33;5.30;;;-1.40;99.90;;;;;;4976028;28;20509;-63
2020/12/27 07:33:15;;;;;;;7.33;5.63;;;-1.30;99.90;;;;;;4975829;28;20475;-64
2020/12/27 07:35:42;;;;;;;6.97;5.73;;;-1.30;99.90;;;;;;4975926;28;20470;-63
2020/12/27 07:38:08;;;;;;;6.30;5.30;;;-1.30;99.90;;;;;;4975695;28;20525;-64
2020/12/27 07:40:35;;;;;;;6.77;6.07;;;-1.30;99.90;;;;;;4975475;28;20486;-63
2020/12/27 07:43:08;;;;;;;7.17;6.50;;;-1.30;99.90;;;;;;4975194;28;20957;-63
2020/12/27 07:45:35;;;;;;;8.43;6.27;;;-1.30;99.90;;;;;;4975700;28;20472;-65
2020/12/27 07:48:01;;;;;;;6.23;5.30;;;-1.20;99.90;;;;;;4975604;28;20458;-65
2020/12/27 07:50:27;;;;;;;6.37;5.77;;;-1.20;99.90;;;;;;4975279;28;20488;-65
2020/12/27 07:52:55;;;;;;;6.43;5.83;;;-1.20;99.90;;;;;;4975352;28;20482;-65
2020/12/27 07:55:23;;;;;;;9.00;5.37;;;-1.20;99.90;;;;;;4975073;28;20458;-65
2020/12/27 07:57:49;;;;;;;8.67;6.00;;;-1.20;99.90;;;;;;4975552;28;20446;-63
2020/12/27 08:00:16;;;;;;;7.23;5.60;;;-1.10;99.90;;;;;;4975357;28;21024;-64
2020/12/27 08:02:43;;;;;;;6.40;5.43;;;-1.10;99.90;;;;;;4976211;28;20450;-63
2020/12/27 08:05:10;;;;;;;5.83;5.27;;;-1.10;99.90;;;;;;4975574;28;20821;-64
2020/12/27 08:07:36;;;;;;;8.50;5.70;;;-1.10;99.90;;;;;;4976058;28;20486;-64
2020/12/27 08:10:13;;;;;;;8.17;5.87;;;-1.00;99.90;;;;;;4976057;28;20561;-64
2020/12/27 08:12:46;;;;;;;5.67;5.13;;;-0.90;99.90;;;;;;4975744;28;20470;-64
2020/12/27 08:15:12;;;;;;;6.90;5.00;;;-0.90;99.90;;;;;;4977238;28;20750;-64
2020/12/27 08:17:50;;;;;;;6.13;5.53;;;-0.80;99.90;;;;;;4977157;28;20455;-64
2020/12/27 08:20:16;;;;;;;6.73;6.03;;;-0.80;99.90;;;;;;4977763;28;20449;-64
2020/12/27 08:22:42;;;;;;;6.80;5.03;;;-0.70;99.90;;;;;;4977253;28;20434;-64
2020/12/27 08:25:12;;;;;;;6.77;5.00;;;-0.70;99.90;;;;;;4976082;28;20481;-64
2020/12/27 08:27:38;;;;;;;8.80;5.47;;;-0.70;99.90;;;;;;4976044;28;20449;-64
2020/12/27 08:30:05;;;;;;;6.60;4.60;;;-0.60;99.90;;;;;;4976643;28;20513;-63
2020/12/27 08:32:31;;;;;;;5.70;5.10;;;-0.50;99.90;;;;;;4976061;28;20510;-63
2020/12/27 08:34:58;;;;;;;8.00;5.13;;;-0.60;99.90;;;;;;4976581;28;20450;-65
2020/12/27 08:37:27;;;;;;;6.77;5.63;;;-0.50;99.90;;;;;;4977511;28;20525;-65
2020/12/27 08:39:55;;;;;;;5.37;4.90;;;-0.50;99.90;;;;;;4976363;28;20454;-64
2020/12/27 08:42:26;;;;;;;5.60;5.10;;;-0.50;99.90;;;;;;4977023;28;20590;-64
2020/12/27 08:44:57;;;;;;;6.93;6.07;;;-0.50;99.90;;;;;;4976467;28;20434;-64
2020/12/27 08:47:33;;;;;;;5.70;5.20;;;-0.50;99.90;;;;;;4976591;28;20442;-64
2020/12/27 08:50:04;;;;;;;7.80;6.30;;;-0.40;99.90;;;;;;4976337;28;20442;-64
2020/12/27 08:52:32;;;;;;;5.67;5.10;;;-0.50;99.90;;;;;;4975769;28;21008;-64
2020/12/27 08:55:00;;;;;;;5.93;5.33;;;-0.50;99.90;;;;;;4978775;28;20462;-65
2020/12/27 08:57:27;;;;;;;7.00;5.50;;;-0.50;99.90;;;;;;4978722;28;20454;-65
2020/12/27 09:00:05;;;;;;;6.57;5.60;;;-0.40;99.90;;;;;;4978662;28;20454;-65
2020/12/27 09:02:31;;;;;;;4.63;4.13;;;-0.40;99.90;;;;;;4978463;28;20493;-65
2020/12/27 09:05:10;;;;;;;6.00;5.37;;;-0.30;99.90;;;;;;4978594;28;20486;-65
2020/12/27 09:07:38;;;;;;;5.93;4.30;;;-0.20;99.90;;;;;;4978656;28;20781;-64
2020/12/27 09:10:07;;;;;;;5.00;4.17;;;0.00;99.90;;;;;;4978497;28;20447;-65
2020/12/27 09:12:33;;;;;;;5.73;4.77;;;0.10;99.90;;;;;;4978286;28;20545;-66
2020/12/27 09:15:00;;;;;;;5.43;4.80;;;0.10;99.90;;;;;;4978268;28;20439;-64
2020/12/27 09:17:28;;;;;;;5.13;3.73;;;0.10;99.90;;;;;;4977880;28;20949;-65
2020/12/27 09:19:55;;;;;;;6.90;4.67;;;0.20;99.90;;;;;;4978229;28;20465;-64
2020/12/27 09:22:23;;;;;;;4.43;4.07;;;0.30;99.90;;;;;;4978207;28;20497;-64
2020/12/27 09:25:06;;;;;;;4.87;4.40;;;0.30;99.90;;;;;;4978499;28;20852;-64
2020/12/27 09:27:32;;;;;;;4.10;3.80;;;0.40;99.90;;;;;;4977965;28;20528;-66
2020/12/27 09:30:01;;;;;;;5.97;4.97;;;0.50;99.90;;;;;;4977919;28;20964;-65
2020/12/27 09:32:33;;;;;;;4.33;3.83;;;0.60;99.90;;;;;;4977569;28;20988;-66
2020/12/27 09:35:00;;;;;;;4.23;3.93;;;0.70;99.90;;;;;;4977807;28;20450;-65
2020/12/27 09:37:33;;;;;;;4.97;4.47;;;0.80;99.90;;;;;;4977430;28;20952;-65
2020/12/27 09:39:59;;;;;;;4.63;4.23;;;0.90;99.90;;;;;;4977739;28;20478;-65
2020/12/27 09:42:28;;;;;;;4.60;4.20;;;1.00;99.90;;;;;;4977386;28;20467;-65
2020/12/27 09:44:55;;;;;;;5.00;4.50;;;1.10;99.90;;;;;;4977004;28;20941;-65
2020/12/27 09:47:23;;;;;;;4.80;4.10;;;1.10;99.90;;;;;;4977704;28;20439;-65
2020/12/27 09:50:06;;;;;;;4.70;4.30;;;1.20;99.90;;;;;;4977109;28;20526;-66
2020/12/27 09:52:43;;;;;;;7.50;4.00;;;1.30;99.90;;;;;;4976806;28;20479;-65
2020/12/27 09:55:09;;;;;;;4.50;4.03;;;1.50;99.90;;;;;;4976930;28;20446;-65
2020/12/27 09:57:35;;;;;;;3.60;3.30;;;1.60;99.90;;;;;;4977242;28;20871;-65
2020/12/27 10:00:03;;;;;;;4.73;4.30;;;1.60;99.90;;;;;;4976953;28;20466;-65
2020/12/27 10:02:29;;;;;;;6.03;3.73;;;1.70;99.90;;;;;;4978745;28;20502;-65
2020/12/27 10:04:56;;;;;;;4.97;3.87;;;1.80;99.90;;;;;;4978120;28;20945;-65
2020/12/27 10:07:22;;;;;;;4.37;3.87;;;1.90;99.90;;;;;;4979053;28;20455;-65
2020/12/27 10:09:49;;;;;;;3.43;3.13;;;1.80;99.90;;;;;;4977581;28;20474;-65
2020/12/27 10:12:16;;;;;;;4.00;3.60;;;1.90;99.90;;;;;;4977195;28;20490;-65
2020/12/27 10:14:42;;;;;;;5.43;3.73;;;1.80;99.90;;;;;;4977349;28;20573;-65
2020/12/27 10:17:09;;;;;;;4.70;3.80;;;1.80;99.90;;;;;;4977095;28;20455;-65
2020/12/27 10:19:36;;;;;;;4.37;3.50;;;1.80;99.90;;;;;;4977734;28;20454;-65
2020/12/27 10:22:02;;;;;;;4.30;3.73;;;1.90;99.90;;;;;;4978020;28;20475;-64
2020/12/27 10:24:31;;;;;;;8.00;3.57;;;2.00;99.90;;;;;;4978452;28;20828;-64
2020/12/27 10:27:00;;;;;;;4.13;3.70;;;1.90;99.90;;;;;;4977875;28;20553;-65
2020/12/27 10:29:26;;;;;;;3.53;3.20;;;1.90;99.90;;;;;;4977446;28;20459;-65
2020/12/27 10:31:52;;;;;;;4.30;3.73;;;1.90;99.90;;;;;;4977693;28;20482;-66
2020/12/27 10:34:19;;;;;;;5.33;4.13;;;2.40;99.90;;;;;;4980068;28;20458;-65
2020/12/27 10:36:46;;;;;;;4.73;4.30;;;2.60;99.90;;;;;;4978909;28;20455;-65
2020/12/27 10:39:12;;;;;;;4.60;4.20;;;2.30;99.90;;;;;;4978429;28;20941;-65
2020/12/27 10:41:39;;;;;;;3.83;3.50;;;2.10;99.90;;;;;;4977238;28;20482;-65
2020/12/27 10:44:06;;;;;;;8.53;4.53;;;1.70;99.90;;;;;;4976975;28;20489;-64
2020/12/27 10:46:32;;;;;;;4.57;4.17;;;1.60;99.90;;;;;;4976958;28;20510;-64
2020/12/27 10:48:58;;;;;;;5.23;4.73;;;1.40;99.90;;;;;;4977480;28;20459;-65
2020/12/27 10:51:25;;;;;;;5.80;5.03;;;1.30;99.90;;;;;;4976815;28;20992;-64
2020/12/27 10:53:51;;;;;;;9.20;5.70;;;1.20;99.90;;;;;;4976848;28;20458;-64
2020/12/27 10:56:17;;;;;;;5.57;5.07;;;1.00;99.90;;;;;;4976460;28;20459;-66
2020/12/27 10:58:43;;;;;;;7.00;6.30;;;1.00;99.90;;;;;;4976596;28;20467;-65
2020/12/27 11:01:11;;;;;;;7.03;5.70;;;0.80;99.90;;;;;;4976261;28;20514;-65
2020/12/27 11:03:37;;;;;;;6.50;5.90;;;0.80;99.90;;;;;;4976612;28;20450;-65
2020/12/27 11:06:03;;;;;;;6.40;5.80;;;0.70;99.90;;;;;;4976095;28;20439;-66
2020/12/27 11:08:30;;;;;;;5.33;4.70;;;0.80;99.90;;;;;;4976923;28;20461;-65
2020/12/27 11:10:57;;;;;;;8.63;6.00;;;0.80;99.90;;;;;;4976113;28;20478;-65
2020/12/27 11:13:23;;;;;;;9.40;6.17;;;0.90;99.90;;;;;;4975575;28;20478;-65
2020/12/27 11:15:49;;;;;;;6.63;5.97;;;0.90;99.90;;;;;;4975641;28;20454;-66
2020/12/27 11:18:16;;;;;;;7.10;6.30;;;1.00;99.90;;;;;;4975946;28;20459;-65
2020/12/27 11:20:42;;;;;;;6.43;5.83;;;1.10;99.90;;;;;;4975962;28;20485;-65
2020/12/27 11:23:08;;;;;;;5.90;5.37;;;1.00;99.90;;;;;;4975488;28;20447;-65
2020/12/27 11:25:35;;;;;;;5.57;5.07;;;1.00;99.90;;;;;;4975535;28;20459;-66
2020/12/27 11:28:01;;;;;;;5.93;5.33;;;1.10;99.90;;;;;;4975652;28;20458;-66
2020/12/27 11:30:27;;;;;;;6.30;5.70;;;1.10;99.90;;;;;;4975581;28;20438;-65
2020/12/27 11:32:53;;;;;;;7.53;6.83;;;1.20;99.90;;;;;;4975712;28;20829;-66
2020/12/27 11:35:20;;;;;;;6.77;5.53;;;1.30;99.90;;;;;;4990148;28;20448;-66
2020/12/27 11:37:46;;;;;;;10.37;6.23;;;1.20;99.90;;;;;;4995149;28;20458;-65
2020/12/27 11:40:16;;;;;;;6.77;5.80;;;1.20;99.90;;;;;;4976407;28;20439;-65
2020/12/27 11:42:42;;;;;;;6.10;5.50;;;1.30;99.90;;;;;;4975096;28;20972;-65
2020/12/27 11:45:08;;;;;;;6.60;5.70;;;1.30;99.90;;;;;;4975536;28;20461;-65
2020/12/27 11:47:36;;;;;;;6.23;5.63;;;1.30;99.90;;;;;;4975932;28;20462;-64
2020/12/27 11:50:03;;;;;;;6.43;5.73;;;1.40;99.90;;;;;;4975371;28;20804;-64
2020/12/27 11:52:30;;;;;;;8.17;6.07;;;1.50;99.90;;;;;;4975320;28;20494;-65
2020/12/27 11:54:56;;;;;;;7.30;4.93;;;1.50;99.90;;;;;;4974906;28;20953;-66
2020/12/27 11:57:22;;;;;;;7.23;6.00;;;1.50;99.90;;;;;;4975245;28;20451;-65
2020/12/27 11:59:48;;;;;;;5.50;5.00;;;1.60;99.90;;;;;;4975312;28;20459;-65
2020/12/27 12:02:15;;;;;;;5.70;5.07;;;1.60;99.90;;;;;;4975144;28;20893;-65
2020/12/27 12:04:41;;;;;;;6.03;5.23;;;1.60;99.90;;;;;;4974983;28;20454;-66
2020/12/27 12:07:07;;;;;;;6.00;5.40;;;1.70;99.90;;;;;;4975275;28;20461;-66
2020/12/27 12:09:35;;;;;;;5.60;5.10;;;1.70;99.90;;;;;;4975325;28;20459;-65
2020/12/27 12:12:01;;;;;;;7.07;5.80;;;1.70;99.90;;;;;;4974783;28;20482;-65
2020/12/27 12:14:27;;;;;;;6.73;5.17;;;1.70;99.90;;;;;;4975119;28;20463;-66
2020/12/27 12:16:54;;;;;;;6.40;5.20;;;1.80;99.90;;;;;;4974830;28;20466;-66
2020/12/27 12:19:21;;;;;;;5.43;4.93;;;1.90;99.90;;;;;;4975038;28;20455;-65
2020/12/27 12:21:52;;;;;;;5.27;4.80;;;1.90;99.90;;;;;;4975069;28;20478;-66
2020/12/27 12:24:18;;;;;;;5.60;5.10;;;1.90;99.90;;;;;;4974951;28;20450;-66
2020/12/27 12:26:45;;;;;;;14.13;5.23;;;1.90;99.90;;;;;;4979121;28;20458;-64
2020/12/27 12:29:16;;;;;;;4.93;4.53;;;2.00;99.90;;;;;;4985200;28;20439;-63
2020/12/27 12:31:42;;;;;;;5.33;4.17;;;2.00;99.90;;;;;;4980408;28;20508;-65
2020/12/27 12:34:09;;;;;;;4.77;4.37;;;2.10;99.90;;;;;;4978755;28;20937;-65
2020/12/27 12:36:35;;;;;;;6.47;4.80;;;2.30;99.90;;;;;;4978944;28;20465;-66
2020/12/27 12:39:02;;;;;;;5.37;4.87;;;2.30;99.90;;;;;;4978459;28;20829;-65
2020/12/27 12:41:30;;;;;;;6.07;5.50;;;2.30;99.90;;;;;;4978687;28;20481;-66
2020/12/27 12:44:00;;;;;;;6.23;5.67;;;2.30;99.90;;;;;;4979217;28;20932;-64
2020/12/27 12:46:27;;;;;;;7.60;5.07;;;2.30;99.90;;;;;;4980903;28;20458;-65
2020/12/27 12:48:54;;;;;;;5.10;4.60;;;2.30;99.90;;;;;;4979181;28;20445;-66
2020/12/27 12:51:21;;;;;;;5.30;4.80;;;2.20;99.90;;;;;;4978111;28;20478;-65
2020/12/27 12:53:47;;;;;;;5.50;4.20;;;2.20;99.90;;;;;;4978488;28;20499;-66
2020/12/27 12:56:14;;;;;;;4.83;4.43;;;2.20;99.90;;;;;;4978461;28;20462;-65
2020/12/27 12:58:40;;;;;;;5.83;4.97;;;2.20;99.90;;;;;;4978522;28;20480;-66
2020/12/27 13:01:11;;;;;;;6.53;4.90;;;2.20;99.90;;;;;;4978394;28;21060;-65
2020/12/27 13:03:37;;;;;;;5.33;4.83;;;2.20;99.90;;;;;;4978954;28;20439;-65
2020/12/27 13:06:04;;;;;;;6.17;5.50;;;2.30;99.90;;;;;;4978314;28;20455;-64
2020/12/27 13:08:30;;;;;;;8.67;6.73;;;2.40;99.90;;;;;;4978347;28;20445;-63
2020/12/27 13:10:56;;;;;;;6.00;5.50;;;2.30;99.90;;;;;;4978213;28;20838;-65
2020/12/27 13:13:22;;;;;;;6.27;5.67;;;2.30;99.90;;;;;;4978626;28;20478;-65
2020/12/27 13:15:48;;;;;;;7.43;4.87;;;2.20;99.90;;;;;;4978223;28;20533;-65
2020/12/27 13:18:15;;;;;;;5.73;5.23;;;2.20;99.90;;;;;;4978469;28;20458;-65
2020/12/27 13:20:41;;;;;;;5.43;4.70;;;2.20;99.90;;;;;;4977652;28;21023;-65
2020/12/27 13:23:08;;;;;;;6.53;5.87;;;2.30;99.90;;;;;;4978403;28;20541;-64
2020/12/27 13:25:34;;;;;;;6.00;5.50;;;2.40;99.90;;;;;;4978137;28;20478;-64
2020/12/27 13:28:00;;;;;;;5.27;4.83;;;2.40;99.90;;;;;;4978162;28;20450;-64
2020/12/27 13:30:27;;;;;;;7.50;6.80;;;2.40;99.90;;;;;;4978321;28;20466;-64
2020/12/27 13:32:53;;;;;;;7.00;4.83;;;2.50;99.90;;;;;;4978741;28;20820;-63
2020/12/27 13:35:20;;;;;;;5.47;4.97;;;2.60;99.90;;;;;;4978301;28;20454;-63
2020/12/27 13:37:46;;;;;;;5.53;5.03;;;2.60;99.90;;;;;;4978211;28;20462;-64
2020/12/27 13:40:12;;;;;;;9.90;5.50;;;2.70;99.90;;;;;;4978199;28;20439;-65
2020/12/27 13:42:39;;;;;;;9.67;5.40;;;2.80;99.90;;;;;;4977693;28;20475;-64
2020/12/27 13:45:06;;;;;;;6.33;5.73;;;2.70;99.90;;;;;;4978141;28;20529;-65
2020/12/27 13:47:32;;;;;;;6.20;5.60;;;2.60;99.90;;;;;;4977873;28;20457;-62
2020/12/27 13:49:58;;;;;;;5.30;4.80;;;2.50;99.90;;;;;;4977689;28;20969;-65
2020/12/27 13:52:25;;;;;;;6.20;5.60;;;2.50;99.90;;;;;;4977475;28;20486;-65
2020/12/27 13:54:52;;;;;;;6.30;5.70;;;2.40;99.90;;;;;;4977956;28;20494;-65
2020/12/27 13:57:18;;;;;;;6.47;5.80;;;2.50;99.90;;;;;;4977082;28;20822;-65
2020/12/27 13:59:44;;;;;;;4.80;4.30;;;2.40;99.90;;;;;;4977526;28;20489;-66
2020/12/27 14:02:10;;;;;;;6.77;5.10;;;2.40;99.90;;;;;;4977402;28;20537;-64
2020/12/27 14:04:36;;;;;;;9.43;5.10;;;2.40;99.90;;;;;;4977597;28;20462;-65
2020/12/27 14:07:03;;;;;;;5.70;5.20;;;2.40;99.90;;;;;;4977211;28;20478;-65
2020/12/27 14:09:30;;;;;;;7.73;5.03;;;2.40;99.90;;;;;;4977481;28;20455;-65
2020/12/27 14:11:56;;;;;;;7.40;4.17;;;2.40;99.90;;;;;;4977341;28;20478;-65
2020/12/27 14:14:22;;;;;;;6.10;5.23;;;2.40;99.90;;;;;;4977400;28;20459;-65
2020/12/27 14:16:49;;;;;;;6.17;5.00;;;2.40;99.90;;;;;;4977136;28;20945;-65
2020/12/27 14:19:15;;;;;;;6.30;5.47;;;2.40;99.90;;;;;;4977442;28;20514;-65
2020/12/27 14:21:41;;;;;;;5.27;4.77;;;2.30;99.90;;;;;;4977329;28;21047;-65
2020/12/27 14:24:07;;;;;;;5.33;4.83;;;2.30;99.90;;;;;;4977454;28;20457;-64
2020/12/27 14:26:36;;;;;;;5.67;4.70;;;2.30;99.90;;;;;;4977802;28;20509;-65
2020/12/27 14:29:03;;;;;;;6.53;5.63;;;2.30;99.90;;;;;;4977901;28;20438;-65
2020/12/27 14:31:30;;;;;;;5.97;4.37;;;2.30;99.90;;;;;;4977179;28;20486;-65
2020/12/27 14:33:56;;;;;;;5.70;5.10;;;2.30;99.90;;;;;;4977087;28;20529;-65
2020/12/27 14:36:22;;;;;;;10.53;6.03;;;2.30;99.90;;;;;;4976813;28;20455;-65
2020/12/27 14:38:49;;;;;;;5.57;4.80;;;2.40;99.90;;;;;;4977133;28;20876;-65
2020/12/27 14:41:16;;;;;;;6.43;4.87;;;2.30;99.90;;;;;;4976926;28;20474;-65
2020/12/27 14:43:43;;;;;;;5.50;4.67;;;2.30;99.90;;;;;;4976920;28;20507;-65
2020/12/27 14:46:09;;;;;;;6.60;4.67;;;2.40;99.90;;;;;;4976537;28;20435;-65
2020/12/27 14:48:36;;;;;;;4.80;4.40;;;2.50;99.90;;;;;;4976517;28;20497;-65
2020/12/27 14:51:04;;;;;;;4.63;3.83;;;2.50;99.90;;;;;;4976127;28;20485;-64
2020/12/27 14:53:30;;;;;;;4.40;4.10;;;2.50;99.90;;;;;;4976793;28;20467;-64
2020/12/27 14:55:56;;;;;;;3.97;3.57;;;2.50;99.90;;;;;;4976417;28;21008;-64
2020/12/27 14:58:22;;;;;;;5.60;4.30;;;2.50;99.90;;;;;;4976490;28;20498;-64
2020/12/27 15:00:50;;;;;;;4.87;4.00;;;2.60;99.90;;;;;;4976384;28;20541;-64
2020/12/27 15:03:16;;;;;;;6.50;4.60;;;2.60;99.90;;;;;;4977787;28;20769;-64
2020/12/27 15:05:42;;;;;;;4.07;3.73;;;2.70;99.90;;;;;;4990565;28;20436;-65
2020/12/27 15:08:09;;;;;;;4.30;4.00;;;2.70;99.90;;;;;;4990727;28;20442;-64
2020/12/27 15:10:36;;;;;;;7.90;3.70;;;2.70;99.90;;;;;;4983001;28;20474;-64
2020/12/27 15:13:02;;;;;;;3.93;3.60;;;2.70;99.90;;;;;;4978085;28;20466;-64
2020/12/27 15:15:29;;;;;;;4.30;3.90;;;2.70;99.90;;;;;;4977014;28;20474;-63
2020/12/27 15:17:56;;;;;;;3.83;3.53;;;2.70;99.90;;;;;;4977230;28;20525;-63
2020/12/27 15:20:22;;;;;;;4.33;3.93;;;2.70;99.90;;;;;;4977147;28;20918;-63
2020/12/27 15:22:48;;;;;;;3.53;3.30;;;2.80;99.90;;;;;;4976846;28;20447;-64
2020/12/27 15:25:15;;;;;;;3.97;3.60;;;2.80;99.90;;;;;;4976062;28;20463;-63
2020/12/27 15:27:42;;;;;;;7.40;3.70;;;2.80;99.90;;;;;;4976480;28;20455;-64
2020/12/27 15:30:08;;;;;;;4.20;3.70;;;2.80;99.90;;;;;;4976347;28;20466;-64
2020/12/27 15:32:35;;;;;;;3.50;3.20;;;2.80;99.90;;;;;;4976186;28;20494;-63
2020/12/27 15:35:02;;;;;;;4.00;3.57;;;2.80;99.90;;;;;;4976151;28;20792;-64
2020/12/27 15:37:28;;;;;;;3.00;2.80;;;2.80;99.90;;;;;;4976123;28;20513;-64
2020/12/27 15:39:54;;;;;;;3.23;3.03;;;2.90;99.90;;;;;;4975809;28;20454;-64
2020/12/27 15:42:21;;;;;;;3.80;3.50;;;2.90;99.90;;;;;;4975829;28;20475;-64
2020/12/27 15:44:47;;;;;;;3.50;3.20;;;2.90;99.90;;;;;;4975406;28;20946;-64
2020/12/27 15:47:14;;;;;;;3.47;3.17;;;2.90;99.90;;;;;;4976171;28;20461;-64
2020/12/27 15:49:40;;;;;;;2.80;2.60;;;3.00;99.90;;;;;;4975551;28;20461;-64
2020/12/27 15:52:07;;;;;;;3.63;3.30;;;3.00;99.90;;;;;;4975621;28;20997;-64
2020/12/27 15:54:35;;;;;;;4.07;2.80;;;3.00;99.90;;;;;;4975451;28;20976;-64
2020/12/27 15:57:01;;;;;;;5.30;3.63;;;3.10;99.90;;;;;;4975515;28;20495;-64
2020/12/27 15:59:27;;;;;;;2.80;2.57;;;3.10;99.90;;;;;;4975266;28;20454;-64
2020/12/27 16:01:53;;;;;;;6.07;4.10;;;3.10;99.90;;;;;;4975133;28;20486;-64
2020/12/27 16:04:19;;;;;;;4.80;3.97;;;3.20;99.90;;;;;;4975595;28;20454;-63
2020/12/27 16:06:47;;;;;;;4.27;3.87;;;3.20;99.90;;;;;;4975738;28;20454;-64
2020/12/27 16:09:15;;;;;;;4.40;4.00;;;3.20;99.90;;;;;;4975253;28;20968;-63
2020/12/27 16:11:41;;;;;;;3.80;3.40;;;3.20;99.90;;;;;;4975439;28;20984;-63
2020/12/27 16:14:08;;;;;;;3.97;3.67;;;3.10;99.90;;;;;;4975748;28;20533;-63
2020/12/27 16:16:35;;;;;;;4.47;3.80;;;3.10;99.90;;;;;;4975246;28;20446;-63
2020/12/27 16:19:01;;;;;;;3.70;3.13;;;3.10;99.90;;;;;;4975704;28;20508;-63
2020/12/27 16:21:27;;;;;;;3.63;3.30;;;3.10;99.90;;;;;;4975245;28;20838;-63
2020/12/27 16:23:54;;;;;;;3.40;3.20;;;3.10;99.90;;;;;;4975142;28;20470;-64
2020/12/27 16:26:21;;;;;;;4.20;3.43;;;3.20;99.90;;;;;;4975152;28;20458;-64
2020/12/27 16:28:47;;;;;;;3.80;3.50;;;3.20;99.90;;;;;;4975328;28;20443;-65
2020/12/27 16:31:13;;;;;;;3.27;2.87;;;3.20;99.90;;;;;;4975666;28;20509;-62
2020/12/27 16:33:41;;;;;;;2.90;2.70;;;3.20;99.90;;;;;;4976316;28;20797;-63
2020/12/27 16:36:14;;;;;;;3.10;2.80;;;3.20;99.90;;;;;;4976198;28;20898;-63
2020/12/27 16:38:40;;;;;;;3.50;3.20;;;3.30;99.90;;;;;;4975464;28;20980;-62
2020/12/27 16:41:06;;;;;;;3.80;2.87;;;3.30;99.90;;;;;;4975723;28;20479;-62
2020/12/27 16:43:33;;;;;;;3.20;2.93;;;3.30;99.90;;;;;;4975931;28;20459;-63
2020/12/27 16:46:00;;;;;;;3.20;3.00;;;3.30;99.90;;;;;;4975649;28;20515;-63
2020/12/27 16:48:26;;;;;;;3.67;3.33;;;3.30;99.90;;;;;;4975411;28;20465;-64
2020/12/27 16:50:52;;;;;;;7.67;5.90;;;3.40;99.90;;;;;;4975151;28;20493;-63
2020/12/27 16:53:20;;;;;;;8.57;6.67;;;3.40;99.90;;;;;;4975351;28;20463;-63
2020/12/27 16:55:47;;;;;;;4.13;3.63;;;3.40;99.90;;;;;;4975726;28;20494;-63
2020/12/27 16:58:13;;;;;;;3.73;3.43;;;3.40;99.90;;;;;;4977368;28;20454;-63
2020/12/27 17:00:40;;;;;;;4.10;3.67;;;3.40;99.90;;;;;;4975566;28;21069;-62
2020/12/27 17:03:07;;;;;;;3.40;3.10;;;3.40;99.90;;;;;;4975449;28;20455;-63
2020/12/27 17:05:33;;;;;;;3.53;3.27;;;3.50;99.90;;;;;;4974990;28;20462;-63
2020/12/27 17:07:59;;;;;;;2.90;2.70;;;3.50;99.90;;;;;;4974709;28;20803;-63
2020/12/27 17:10:26;;;;;;;3.80;3.50;;;3.60;99.90;;;;;;4974929;28;20451;-63
2020/12/27 17:12:52;;;;;;;4.00;3.27;;;3.60;99.90;;;;;;4974712;28;20485;-62
2020/12/27 17:15:19;;;;;;;4.73;3.60;;;3.60;99.90;;;;;;4978118;28;20494;-63
2020/12/27 17:17:46;;;;;;;3.17;2.97;;;3.60;99.90;;;;;;4978373;28;20498;-63
2020/12/27 17:20:12;;;;;;;3.50;3.30;;;3.60;99.90;;;;;;4978381;28;20558;-63
2020/12/27 17:22:39;;;;;;;3.87;3.10;;;3.70;99.90;;;;;;4978170;28;20487;-64
2020/12/27 17:25:05;;;;;;;3.23;3.03;;;3.70;99.90;;;;;;4978354;28;20461;-63
2020/12/27 17:27:31;;;;;;;3.43;3.13;;;3.70;99.90;;;;;;4978655;28;20462;-63
2020/12/27 17:29:57;;;;;;;3.73;3.40;;;3.80;99.90;;;;;;4977806;28;20953;-62
2020/12/27 17:32:23;;;;;;;4.20;3.30;;;3.80;99.90;;;;;;4977730;28;20478;-64
2020/12/27 17:34:50;;;;;;;3.90;3.37;;;3.80;99.90;;;;;;4978071;28;20485;-63
2020/12/27 17:37:17;;;;;;;4.20;3.20;;;3.80;99.90;;;;;;4977819;28;20945;-63
2020/12/27 17:39:43;;;;;;;3.20;3.00;;;3.80;99.90;;;;;;4978094;28;20524;-62
2020/12/27 17:42:09;;;;;;;3.00;2.70;;;3.80;99.90;;;;;;4977737;28;20478;-63
2020/12/27 17:44:35;;;;;;;3.03;2.83;;;3.80;99.90;;;;;;4977728;28;20973;-63
2020/12/27 17:47:02;;;;;;;4.37;3.60;;;3.80;99.90;;;;;;4979670;28;20848;-65
2020/12/27 17:49:28;;;;;;;3.17;2.97;;;3.80;99.90;;;;;;4977634;28;20455;-63
2020/12/27 17:51:55;;;;;;;3.33;2.70;;;3.80;99.90;;;;;;4977466;28;20479;-63
2020/12/27 17:54:21;;;;;;;3.43;3.23;;;3.80;99.90;;;;;;4977665;28;20478;-63